Time;durP1;ratioP1;P1;durP2;ratioP2;P2;SDS_P1;SDS_P2;PMS_P1;PMS_P2;Temp;Humidity;BMP_temperature;BMP_pressure;BME280_temperature;BME280_humidity;BME280_pressure;Samples;Min_cycle;Max_cycle;Signal;HPM_P1;HPM_P2
2022/06/10 00:02:05;;;;;;;;;;;;;;;14.80;81.60;96766.34;109660;1251;60501;-64
2022/06/10 00:04:37;;;;;;;;;;;;;;;14.73;82.67;96767.00;109939;1250;72328;-68
2022/06/10 00:07:07;;;;;;;;;;;;;;;14.69;82.75;96772.35;109946;1251;68802;-69
2022/06/10 00:09:37;;;;;;;;;;;;;;;14.66;82.24;96766.52;109649;1251;67498;-71
2022/06/10 00:12:12;;;;;;;;;;;;;;;14.63;82.29;96771.54;109798;1254;60583;-68
2022/06/10 00:14:42;;;;;;;;;;;;;;;14.61;82.84;96777.01;110238;1251;60511;-68
2022/06/10 00:17:12;;;;;;;;;;;;;;;14.57;82.70;96781.09;109703;1251;71537;-67
2022/06/10 00:19:42;;;;;;;;;;;;;;;14.55;81.59;96782.67;109928;1250;67803;-70
2022/06/10 00:22:12;;;;;;;;;;;;;;;14.55;81.96;96779.73;109833;1249;69388;-65
2022/06/10 00:24:41;;;;;;;;;;;;;;;14.55;81.47;96775.83;109757;1251;60816;-70
2022/06/10 00:27:13;;;;;;;;;;;;;;;14.55;81.52;96774.61;109801;1250;60497;-73
2022/06/10 00:29:44;;;;;;;;;;;;;;;14.57;82.16;96774.64;109731;1250;71493;-65
2022/06/10 00:32:15;;;;;;;;;;;;;;;14.57;82.66;96774.02;110003;1250;68401;-65
2022/06/10 00:34:45;;;;;;;;;;;;;;;14.59;82.70;96776.69;109938;1250;69421;-71
2022/06/10 00:37:14;;;;;;;;;;;;;;;14.58;82.19;96772.52;109959;1251;60545;-67
2022/06/10 00:39:45;;;;;;;;;;;;;;;14.58;82.22;96775.17;109974;1251;60494;-65
2022/06/10 00:42:15;;;;;;;;;;;;;;;14.58;82.23;96777.34;109559;1253;72180;-64
2022/06/10 00:44:47;;;;;;;;;;;;;;;14.58;81.88;96778.89;109749;1251;68617;-67
2022/06/10 00:47:20;;;;;;;;;;;;;;;14.58;82.21;96772.77;109932;1251;68943;-70
2022/06/10 00:49:56;;;;;;;;;;;;;;;14.57;81.29;96773.92;109791;1251;60553;-65
2022/06/10 00:52:34;;;;;;;;;;;;;;;14.55;79.89;96773.23;109733;1251;60500;-64
2022/06/10 00:55:06;;;;;;;;;;;;;;;14.54;81.04;96772.30;109887;1251;71539;-67
2022/06/10 00:57:38;;;;;;;;;;;;;;;14.52;80.29;96769.67;109752;1251;68406;-70
2022/06/10 01:00:13;;;;;;;;;;;;;;;14.49;79.65;96769.58;109992;1251;69384;-66
2022/06/10 01:02:45;;;;;;;;;;;;;;;14.46;80.75;96775.93;109924;1251;60541;-64
2022/06/10 01:05:17;;;;;;;;;;;;;;;14.44;81.45;96775.66;109765;1250;60554;-64
2022/06/10 01:08:01;;;;;;;;;;;;;;;14.40;81.63;96773.14;109747;1251;72367;-65
2022/06/10 01:10:36;;;;;;;;;;;;;;;14.36;80.84;96775.04;109792;1253;67810;-68
2022/06/10 01:13:15;;;;;;;;;;;;;;;14.33;81.09;96779.16;109855;1250;69434;-65
2022/06/10 01:16:09;;;;;;;;;;;;;;;14.29;81.36;96777.31;109860;1251;60516;-66
2022/06/10 01:18:42;;;;;;;;;;;;;;;14.24;81.29;96779.36;109819;1250;60471;-70
2022/06/10 01:21:17;;;;;;;;;;;;;;;14.21;81.12;96780.75;109708;1254;71574;-66
2022/06/10 01:24:06;;;;;;;;;;;;;;;14.17;80.69;96778.52;109748;1251;68605;-64
2022/06/10 01:30:06;;;;;;;;;;;;;;;14.10;81.36;96775.13;109872;1251;60516;-66
2022/06/10 01:32:38;;;;;;;;;;;;;;;14.07;81.55;96775.13;110059;1251;60493;-71
2022/06/10 01:35:22;;;;;;;;;;;;;;;14.04;82.12;96776.44;109792;1250;72305;-73
2022/06/10 01:37:59;;;;;;;;;;;;;;;14.01;82.10;96774.63;109748;1251;68560;-69
2022/06/10 01:40:42;;;;;;;;;;;;;;;13.97;80.91;96778.80;109942;1251;69402;-70
2022/06/10 01:43:17;;;;;;;;;;;;;;;13.93;79.95;96776.41;109775;1250;60495;-74
2022/06/10 01:45:52;;;;;;;;;;;;;;;13.87;80.23;96777.68;110000;1251;60554;-74
2022/06/10 01:48:30;;;;;;;;;;;;;;;13.81;81.91;96781.80;110384;1251;72338;-68
2022/06/10 01:51:06;;;;;;;;;;;;;;;13.75;82.74;96783.36;109778;1251;67779;-73
2022/06/10 01:53:45;;;;;;;;;;;;;;;13.70;83.39;96785.23;109744;1251;67791;-70
2022/06/10 01:56:40;;;;;;;;;;;;;;;13.64;83.41;96787.72;109946;1251;60509;-65
2022/06/10 01:59:25;;;;;;;;;;;;;;;13.58;83.90;96788.34;109968;1251;60490;-67
2022/06/10 02:02:02;;;;;;;;;;;;;;;13.54;83.75;96788.90;109948;1250;71567;-67
2022/06/10 02:04:39;;;;;;;;;;;;;;;13.52;83.17;96786.32;109980;1251;68160;-66
2022/06/10 02:07:13;;;;;;;;;;;;;;;13.49;82.57;96787.27;109778;1251;69465;-65
2022/06/10 02:09:47;;;;;;;;;;;;;;;13.47;81.80;96789.34;109668;1251;60916;-67
2022/06/10 02:12:37;;;;;;;;;;;;;;;13.48;81.59;96796.48;109877;1250;60512;-69
2022/06/10 02:15:18;;;;;;;;;;;;;;;13.49;81.54;96802.71;109936;1251;72273;-65
2022/06/10 02:17:54;;;;;;;;;;;;;;;13.48;80.60;96809.95;109900;1251;68115;-70
2022/06/10 02:20:26;;;;;;;;;;;;;;;13.46;80.22;96814.02;109915;1251;69420;-65
2022/06/10 02:22:57;;;;;;;;;;;;;;;13.41;83.10;96819.20;109708;1253;60451;-69
2022/06/10 02:25:35;;;;;;;;;;;;;;;13.37;83.88;96817.77;109905;1251;60461;-73
2022/06/10 02:28:11;;;;;;;;;;;;;;;13.34;83.75;96824.57;109920;1251;71596;-71
2022/06/10 02:30:49;;;;;;;;;;;;;;;13.30;82.59;96823.01;109847;1251;68018;-73
2022/06/10 02:33:18;;;;;;;;;;;;;;;13.27;82.94;96824.55;109860;1251;69262;-72
2022/06/10 02:35:56;;;;;;;;;;;;;;;13.24;83.17;96823.94;110188;1250;60513;-73
2022/06/10 02:38:26;;;;;;;;;;;;;;;13.22;82.68;96826.02;109793;1251;60525;-73
2022/06/10 02:41:18;;;;;;;;;;;;;;;13.21;81.43;96832.39;109762;1251;72179;-74
2022/06/10 02:43:58;;;;;;;;;;;;;;;13.22;83.44;96837.53;109770;1253;67812;-73
2022/06/10 02:46:36;;;;;;;;;;;;;;;13.24;83.49;96841.56;109724;1251;69563;-75
2022/06/10 02:49:06;;;;;;;;;;;;;;;13.24;83.65;96845.08;109758;1251;60625;-74
2022/06/10 02:51:38;;;;;;;;;;;;;;;13.23;83.22;96850.38;109720;1253;60532;-75
2022/06/10 02:54:29;;;;;;;;;;;;;;;13.21;82.10;96850.00;109674;1251;72436;-78
2022/06/10 02:57:09;;;;;;;;;;;;;;;13.22;83.22;96854.16;109633;1251;68735;-71
2022/06/10 03:02:47;;;;;;;;;;;;;;;13.29;83.42;96845.73;109669;1251;60568;-73
2022/06/10 03:05:21;;;;;;;;;;;;;;;13.32;82.75;96844.23;109764;1251;60879;-75
2022/06/10 03:07:52;;;;;;;;;;;;;;;13.37;83.66;96850.60;109586;1251;72326;-72
2022/06/10 03:10:31;;;;;;;;;;;;;;;13.40;82.33;96856.04;109671;1251;68430;-68
2022/06/10 03:13:20;;;;;;;;;;;;;;;13.45;81.81;96858.17;109836;1250;68468;-74
2022/06/10 03:15:57;;;;;;;;;;;;;;;13.50;80.62;96867.01;109533;1251;60567;-71
2022/06/10 03:18:48;;;;;;;;;;;;;;;13.54;80.43;96867.88;109636;1251;60490;-74
2022/06/10 03:21:28;;;;;;;;;;;;;;;13.57;82.45;96869.86;110203;1251;71879;-71
2022/06/10 03:23:58;;;;;;;;;;;;;;;13.62;82.31;96869.75;109913;1254;67649;-69
2022/06/10 03:26:28;;;;;;;;;;;;;;;13.64;80.31;96865.66;109868;1251;69886;-69
2022/06/10 03:29:23;;;;;;;;;;;;;;;13.68;80.95;96868.30;109462;1251;60573;-70
2022/06/10 03:31:59;;;;;;;;;;;;;;;13.71;79.87;96868.67;109902;1251;60429;-75
2022/06/10 03:34:33;;;;;;;;;;;;;;;13.73;80.33;96868.16;109651;1253;72647;-75
2022/06/10 03:37:06;;;;;;;;;;;;;;;13.76;79.65;96865.96;109918;1251;68720;-70
2022/06/10 03:39:39;;;;;;;;;;;;;;;13.75;79.33;96877.09;109958;1251;69410;-71
2022/06/10 03:42:09;;;;;;;;;;;;;;;13.73;81.59;96882.71;109839;1251;60479;-74
2022/06/10 03:44:39;;;;;;;;;;;;;;;13.75;81.40;96884.73;109959;1250;60545;-74
2022/06/10 03:47:14;;;;;;;;;;;;;;;13.80;81.18;96881.02;109859;1250;72403;-69
2022/06/10 03:49:47;;;;;;;;;;;;;;;13.86;81.26;96884.52;109804;1251;68695;-69
2022/06/10 03:52:19;;;;;;;;;;;;;;;13.89;80.66;96881.61;109874;1251;68602;-71
2022/06/10 03:54:49;;;;;;;;;;;;;;;13.92;80.23;96883.90;109700;1250;60570;-72
2022/06/10 03:57:19;;;;;;;;;;;;;;;13.97;80.38;96882.55;109569;1251;60571;-66
2022/06/10 03:59:50;;;;;;;;;;;;;;;14.02;79.44;96881.02;109704;1251;72193;-70
2022/06/10 04:02:19;;;;;;;;;;;;;;;14.07;79.73;96877.77;109863;1251;68732;-69
2022/06/10 04:04:51;;;;;;;;;;;;;;;14.12;80.19;96883.95;109897;1251;68775;-67
2022/06/10 04:07:20;;;;;;;;;;;;;;;14.17;79.61;96887.95;110047;1251;60860;-71
2022/06/10 04:09:49;;;;;;;;;;;;;;;14.22;78.67;96887.81;109819;1251;60793;-71
2022/06/10 04:12:21;;;;;;;;;;;;;;;14.27;80.12;96887.77;109864;1251;71792;-65
2022/06/10 04:14:52;;;;;;;;;;;;;;;14.33;79.24;96885.97;109808;1251;68529;-67
2022/06/10 04:17:26;;;;;;;;;;;;;;;14.40;79.05;96891.77;109845;1251;69538;-67
2022/06/10 04:19:57;;;;;;;;;;;;;;;14.48;78.37;96894.98;109831;1251;60516;-71
2022/06/10 04:22:27;;;;;;;;;;;;;;;14.58;78.19;96901.95;109897;1251;60492;-66
2022/06/10 04:24:56;;;;;;;;;;;;;;;14.68;77.52;96904.35;109790;1251;72372;-68
2022/06/10 04:27:26;;;;;;;;;;;;;;;14.73;78.70;96903.27;109841;1251;67530;-71
2022/06/10 04:29:54;;;;;;;;;;;;;;;14.80;78.61;96906.67;109900;1250;68049;-69
2022/06/10 04:32:23;;;;;;;;;;;;;;;14.88;78.48;96899.77;109880;1250;60576;-65
2022/06/10 04:34:52;;;;;;;;;;;;;;;14.93;78.93;96902.73;109844;1250;60446;-67
2022/06/10 04:37:22;;;;;;;;;;;;;;;15.01;79.26;96906.50;109807;1250;72820;-66
2022/06/10 04:39:50;;;;;;;;;;;;;;;15.11;78.42;96912.68;109875;1251;68718;-67
2022/06/10 04:42:19;;;;;;;;;;;;;;;15.15;77.85;96911.23;109875;1250;68674;-68
2022/06/10 04:44:48;;;;;;;;;;;;;;;15.18;78.43;96913.61;109791;1251;61649;-74
2022/06/10 04:47:17;;;;;;;;;;;;;;;15.25;78.80;96911.11;109648;1251;60498;-72
2022/06/10 04:49:46;;;;;;;;;;;;;;;15.37;78.99;96907.70;109762;1251;72382;-65
2022/06/10 04:52:15;;;;;;;;;;;;;;;15.51;78.91;96912.02;109928;1251;68582;-69
2022/06/10 04:54:44;;;;;;;;;;;;;;;15.64;77.37;96907.78;109877;1250;68909;-64
2022/06/10 04:57:14;;;;;;;;;;;;;;;15.75;77.04;96913.56;109750;1251;60575;-75
2022/06/10 04:59:44;;;;;;;;;;;;;;;15.93;77.02;96915.01;109726;1252;60886;-75
2022/06/10 05:02:14;;;;;;;;;;;;;;;16.17;76.19;96917.45;109858;1251;72259;-74
2022/06/10 05:04:44;;;;;;;;;;;;;;;16.48;75.78;96920.55;109914;1251;68462;-72
2022/06/10 05:07:14;;;;;;;;;;;;;;;16.83;74.46;96924.98;109893;1250;69346;-73
2022/06/10 05:09:43;;;;;;;;;;;;;;;17.11;72.67;96925.55;109822;1250;60479;-73
2022/06/10 05:12:13;;;;;;;;;;;;;;;17.49;72.19;96926.95;109859;1251;60456;-73
2022/06/10 05:14:48;;;;;;;;;;;;;;;17.99;71.11;96925.27;109885;1250;72409;-72
2022/06/10 05:17:22;;;;;;;;;;;;;;;18.58;69.29;96924.77;109765;1251;67429;-68
2022/06/10 05:19:51;;;;;;;;;;;;;;;19.00;68.94;96925.92;109899;1250;68986;-66
2022/06/10 05:22:24;;;;;;;;;;;;;;;19.15;64.24;96935.32;109895;1250;60571;-65
2022/06/10 05:24:52;;;;;;;;;;;;;;;19.29;65.79;96941.65;109833;1251;60459;-65
2022/06/10 05:27:22;;;;;;;;;;;;;;;19.39;66.46;96945.31;109892;1250;72827;-65
2022/06/10 05:29:51;;;;;;;;;;;;;;;19.44;66.16;96946.36;109867;1250;68554;-66
2022/06/10 05:32:19;;;;;;;;;;;;;;;19.37;62.65;96942.54;109900;1250;68826;-71
2022/06/10 05:34:48;;;;;;;;;;;;;;;19.31;62.20;96942.63;110105;1250;61222;-65
2022/06/10 05:37:22;;;;;;;;;;;;;;;19.21;63.10;96942.84;109834;1250;60533;-67
2022/06/10 05:39:54;;;;;;;;;;;;;;;19.25;63.17;96943.57;109943;1251;72970;-68
2022/06/10 05:42:23;;;;;;;;;;;;;;;19.24;63.56;96940.79;109890;1250;68632;-72
2022/06/10 05:44:52;;;;;;;;;;;;;;;19.22;63.71;96941.67;109751;1250;68756;-69
2022/06/10 05:47:24;;;;;;;;;;;;;;;19.43;64.49;96946.30;109717;1251;60537;-68
2022/06/10 05:49:54;;;;;;;;;;;;;;;19.62;63.94;96949.77;109943;1250;60520;-68
2022/06/10 05:52:24;;;;;;;;;;;;;;;19.68;63.23;96945.79;109922;1251;71520;-70
2022/06/10 05:54:55;;;;;;;;;;;;;;;19.86;63.10;96947.45;109757;1251;67721;-66
2022/06/10 05:57:24;;;;;;;;;;;;;;;20.11;63.66;96946.30;109732;1251;68789;-66
2022/06/10 05:59:52;;;;;;;;;;;;;;;20.38;63.10;96948.38;109971;1250;60531;-73
2022/06/10 06:02:22;;;;;;;;;;;;;;;20.66;61.11;96950.64;109897;1250;60504;-66
2022/06/10 06:04:51;;;;;;;;;;;;;;;20.92;61.16;96953.06;109756;1250;71584;-71
2022/06/10 06:07:23;;;;;;;;;;;;;;;21.18;60.39;96954.36;109777;1250;66968;-73
2022/06/10 06:09:53;;;;;;;;;;;;;;;21.39;58.36;96956.98;109665;1251;69690;-69
2022/06/10 06:12:22;;;;;;;;;;;;;;;21.53;57.17;96955.09;109896;1250;60549;-76
2022/06/10 06:14:51;;;;;;;;;;;;;;;21.61;54.41;96956.30;109884;1250;60511;-70
2022/06/10 06:17:20;;;;;;;;;;;;;;;21.68;52.26;96950.39;110334;1249;71588;-69
2022/06/10 06:19:49;;;;;;;;;;;;;;;22.07;53.58;96948.77;109987;1250;67694;-72
2022/06/10 06:22:19;;;;;;;;;;;;;;;22.40;51.63;96950.23;110004;1250;69494;-73
2022/06/10 06:24:47;;;;;;;;;;;;;;;22.73;49.13;96951.45;109655;1253;60549;-71
2022/06/10 06:27:20;;;;;;;;;;;;;;;23.13;49.00;96957.29;109157;1250;827985;-74
2022/06/10 06:29:50;;;;;;;;;;;;;;;23.44;47.70;96951.41;109782;1251;72312;-72
2022/06/10 06:32:19;;;;;;;;;;;;;;;23.43;46.21;96948.16;109841;1250;67709;-72
2022/06/10 06:34:47;;;;;;;;;;;;;;;23.58;46.76;96950.06;109807;1250;69458;-67
2022/06/10 06:37:17;;;;;;;;;;;;;;;23.64;46.79;96952.09;109688;1253;60518;-67
2022/06/10 06:39:46;;;;;;;;;;;;;;;23.83;47.16;96951.41;109736;1251;60495;-74
2022/06/10 06:42:16;;;;;;;;;;;;;;;24.09;46.68;96950.96;109959;1250;72488;-70
2022/06/10 06:44:44;;;;;;;;;;;;;;;24.12;44.98;96946.89;109879;1251;68635;-74
2022/06/10 06:47:33;;;;;;;;;;;;;;;24.11;44.41;96949.61;109946;1250;69409;-68
2022/06/10 06:50:03;;;;;;;;;;;;;;;24.13;45.66;96951.91;109926;1250;60577;-66
2022/06/10 06:52:32;;;;;;;;;;;;;;;24.15;48.32;96955.47;109954;1250;60528;-70
2022/06/10 06:55:03;;;;;;;;;;;;;;;24.17;48.46;96959.38;109831;1250;72519;-66
2022/06/10 06:57:32;;;;;;;;;;;;;;;24.00;47.29;96965.73;109932;1250;68740;-66
2022/06/10 07:00:06;;;;;;;;;;;;;;;24.06;47.48;96963.00;110042;1250;69472;-69
2022/06/10 07:02:36;;;;;;;;;;;;;;;23.90;47.45;96964.95;109941;1251;60556;-72
2022/06/10 07:05:06;;;;;;;;;;;;;;;23.76;47.05;96963.35;109914;1250;60537;-69
2022/06/10 07:07:35;;;;;;;;;;;;;;;23.49;47.55;96960.85;109671;1251;71607;-67
2022/06/10 07:10:06;;;;;;;;;;;;;;;23.43;48.32;96962.89;109749;1250;67799;-67
2022/06/10 07:12:36;;;;;;;;;;;;;;;23.49;47.79;96958.87;110045;1250;69494;-66
2022/06/10 07:15:05;;;;;;;;;;;;;;;23.47;47.71;96955.07;109924;1250;60504;-66
2022/06/10 07:17:34;;;;;;;;;;;;;;;23.81;47.72;96959.16;109960;1250;60499;-72
2022/06/10 07:20:05;;;;;;;;;;;;;;;24.03;45.54;96958.16;109998;1250;72129;-68
2022/06/10 07:22:33;;;;;;;;;;;;;;;24.29;44.85;96954.86;109981;1250;68645;-67
2022/06/10 07:25:03;;;;;;;;;;;;;;;24.43;43.06;96951.95;109932;1250;68667;-68
2022/06/10 07:27:31;;;;;;;;;;;;;;;24.42;43.78;96955.23;109887;1250;60549;-73
2022/06/10 07:30:05;;;;;;;;;;;;;;;24.63;45.03;96952.33;109748;1250;60492;-66
2022/06/10 07:32:34;;;;;;;;;;;;;;;25.10;44.71;96958.25;109985;1250;71592;-66
2022/06/10 07:35:03;;;;;;;;;;;;;;;25.55;41.84;96961.27;109940;1250;67896;-65
2022/06/10 07:37:32;;;;;;;;;;;;;;;25.82;40.05;96962.57;109917;1250;68796;-66
2022/06/10 07:40:01;;;;;;;;;;;;;;;25.63;40.02;96960.80;109912;1250;60560;-66
2022/06/10 07:42:29;;;;;;;;;;;;;;;25.68;39.55;96965.52;109989;1250;60550;-73
2022/06/10 07:44:59;;;;;;;;;;;;;;;26.03;40.69;96967.24;110266;1249;71972;-66
2022/06/10 07:47:28;;;;;;;;;;;;;;;26.24;40.22;96967.95;109776;1251;68685;-67
2022/06/10 07:49:56;;;;;;;;;;;;;;;26.20;39.72;96967.18;109832;1250;68694;-66
2022/06/10 07:52:25;;;;;;;;;;;;;;;25.89;38.66;96966.96;109923;1250;60551;-75
2022/06/10 07:54:54;;;;;;;;;;;;;;;25.70;39.93;96968.38;109738;1250;60579;-72
2022/06/10 07:57:24;;;;;;;;;;;;;;;25.82;40.37;96972.40;109689;1251;71977;-73
2022/06/10 07:59:53;;;;;;;;;;;;;;;25.86;40.08;96973.57;109773;1250;68439;-71
2022/06/10 08:02:23;;;;;;;;;;;;;;;25.85;39.61;96972.15;109877;1250;69477;-67
2022/06/10 08:04:52;;;;;;;;;;;;;;;26.02;39.81;96977.11;109877;1250;60487;-68
2022/06/10 08:07:20;;;;;;;;;;;;;;;26.48;40.28;96974.95;109866;1250;60552;-70
2022/06/10 08:09:50;;;;;;;;;;;;;;;26.83;38.58;96977.60;109707;1251;72357;-66
2022/06/10 08:12:18;;;;;;;;;;;;;;;27.47;37.47;96977.71;109741;1250;68604;-67
2022/06/10 08:14:48;;;;;;;;;;;;;;;28.10;36.09;96983.93;109730;1251;68852;-70
2022/06/10 08:17:17;;;;;;;;;;;;;;;28.62;34.02;96977.37;109833;1250;60559;-67
2022/06/10 08:19:46;;;;;;;;;;;;;;;28.89;32.68;96980.69;109789;1250;60617;-71
2022/06/10 08:22:34;;;;;;;;;;;;;;;29.02;31.65;96978.95;109977;1250;73070;-73
2022/06/10 08:25:04;;;;;;;;;;;;;;;29.01;32.35;96982.36;109910;1250;68208;-73
2022/06/10 08:27:34;;;;;;;;;;;;;;;29.42;31.61;96982.73;109853;1250;69537;-70
2022/06/10 08:30:04;;;;;;;;;;;;;;;29.74;32.31;96982.23;109922;1250;60444;-69
2022/06/10 08:32:33;;;;;;;;;;;;;;;30.01;31.86;96987.45;110104;1250;60557;-68
2022/06/10 08:35:01;;;;;;;;;;;;;;;29.88;30.57;96988.60;109823;1250;72965;-73
2022/06/10 08:37:30;;;;;;;;;;;;;;;29.42;31.34;96995.98;109993;1250;68609;-69
2022/06/10 08:39:59;;;;;;;;;;;;;;;29.10;31.93;96999.02;109713;1251;69458;-70
2022/06/10 08:42:39;;;;;;;;;;;;;;;28.66;33.03;97004.34;109829;1250;60524;-69
2022/06/10 08:45:22;;;;;;;;;;;;;;;28.30;33.41;97009.05;109722;1251;60485;-70
2022/06/10 08:48:00;;;;;;;;;;;;;;;27.90;33.74;97007.36;109887;1250;72363;-70
2022/06/10 08:50:41;;;;;;;;;;;;;;;27.54;34.18;97010.44;109804;1249;67989;-70
2022/06/10 08:53:30;;;;;;;;;;;;;;;27.45;34.09;97003.72;109794;1250;69452;-72
2022/06/10 08:56:05;;;;;;;;;;;;;;;27.35;34.13;97004.81;109865;1250;60557;-67
2022/06/10 08:58:33;;;;;;;;;;;;;;;27.27;34.53;97003.61;109929;1250;60466;-73
2022/06/10 09:01:11;;;;;;;;;;;;;;;27.32;34.51;97004.23;109937;1250;71518;-71
2022/06/10 09:03:44;;;;;;;;;;;;;;;27.12;34.76;97011.92;109913;1250;68627;-70
2022/06/10 09:06:18;;;;;;;;;;;;;;;26.85;35.49;97011.61;109824;1250;68946;-71
2022/06/10 09:08:49;;;;;;;;;;;;;;;26.79;36.43;97017.74;109887;1250;60552;-72
2022/06/10 09:11:31;;;;;;;;;;;;;;;26.87;36.47;97022.02;109929;1250;60554;-71
2022/06/10 09:14:20;;;;;;;;;;;;;;;26.99;36.54;97023.95;109867;1250;72457;-71
2022/06/10 09:16:53;;;;;;;;;;;;;;;27.05;36.33;97020.86;109679;1251;67947;-73
2022/06/10 09:19:29;;;;;;;;;;;;;;;27.07;36.58;97025.27;109901;1250;68702;-69
2022/06/10 09:22:15;;;;;;;;;;;;;;;27.14;37.07;97024.77;109701;1253;60452;-73
2022/06/10 09:24:51;;;;;;;;;;;;;;;27.19;37.22;97026.23;109939;1250;60484;-69
2022/06/10 09:27:27;;;;;;;;;;;;;;;27.07;37.49;97020.23;109884;1250;72188;-66
2022/06/10 09:29:57;;;;;;;;;;;;;;;26.93;38.14;97020.99;109887;1250;68834;-68
2022/06/10 09:32:26;;;;;;;;;;;;;;;26.67;38.53;97028.92;109717;1253;68981;-67
2022/06/10 09:35:06;;;;;;;;;;;;;;;26.15;39.04;97035.41;109792;1249;60564;-68
2022/06/10 09:37:42;;;;;;;;;;;;;;;25.85;39.05;97033.61;109895;1250;60494;-66
2022/06/10 09:41:01;;;;;;;;;;;;;;;25.71;39.77;97042.86;109654;1251;71836;-66
2022/06/10 09:43:27;;;;;;;;;;;;;;;25.49;40.37;97045.95;109839;1250;67962;-68
2022/06/10 09:46:07;;;;;;;;;;;;;;;25.28;41.01;97048.50;110096;1247;68633;-66
2022/06/10 09:48:57;;;;;;;;;;;;;;;25.08;41.88;97054.33;109901;1250;60537;-67
2022/06/10 09:51:43;;;;;;;;;;;;;;;24.88;42.50;97052.36;109866;1250;60483;-71
2022/06/10 09:54:12;;;;;;;;;;;;;;;24.68;42.23;97055.88;109800;1250;72366;-73
2022/06/10 09:56:56;;;;;;;;;;;;;;;24.50;43.16;97060.02;109724;1251;68549;-70
2022/06/10 09:59:40;;;;;;;;;;;;;;;24.44;43.28;97060.27;109664;1250;68559;-70
2022/06/10 10:02:20;;;;;;;;;;;;;;;24.42;43.22;97064.43;109909;1249;60500;-69
2022/06/10 10:04:49;;;;;;;;;;;;;;;24.42;42.33;97071.33;109845;1250;60513;-72
2022/06/10 10:07:28;;;;;;;;;;;;;;;24.36;41.93;97068.25;109942;1250;71543;-72
2022/06/10 10:09:57;;;;;;;;;;;;;;;24.49;41.58;97068.12;109690;1250;67598;-71
2022/06/10 10:12:36;;;;;;;;;;;;;;;24.48;41.31;97068.66;109838;1250;70054;-72
2022/06/10 10:15:10;;;;;;;;;;;;;;;24.50;41.58;97064.92;109721;1250;61245;-70
2022/06/10 10:17:58;;;;;;;;;;;;;;;24.66;41.67;97062.05;110108;1250;60573;-68
2022/06/10 10:20:29;;;;;;;;;;;;;;;24.83;41.26;97058.18;109743;1253;72925;-68
2022/06/10 10:23:07;;;;;;;;;;;;;;;24.76;41.35;97056.43;109925;1250;68598;-72
2022/06/10 10:25:38;;;;;;;;;;;;;;;24.90;41.22;97055.32;109960;1250;68689;-68
2022/06/10 10:28:15;;;;;;;;;;;;;;;25.01;41.09;97055.98;109806;1250;60493;-73
2022/06/10 10:31:04;;;;;;;;;;;;;;;25.22;40.67;97059.92;109704;1250;60525;-70
2022/06/10 10:33:33;;;;;;;;;;;;;;;25.33;41.02;97058.93;109889;1249;71681;-71
2022/06/10 10:36:05;;;;;;;;;;;;;;;25.40;40.73;97057.70;109673;1253;68647;-74
2022/06/10 10:38:40;;;;;;;;;;;;;;;25.62;40.80;97058.56;109799;1250;68911;-72
2022/06/10 10:41:17;;;;;;;;;;;;;;;26.04;40.22;97059.23;109898;1250;60572;-68
2022/06/10 10:43:48;;;;;;;;;;;;;;;26.28;40.11;97057.06;109698;1252;60484;-69
2022/06/10 10:46:31;;;;;;;;;;;;;;;26.46;39.19;97053.88;109656;1252;72493;-68
2022/06/10 10:49:04;;;;;;;;;;;;;;;26.55;38.78;97052.73;109728;1252;68620;-72
2022/06/10 10:51:40;;;;;;;;;;;;;;;26.62;38.51;97049.14;109722;1252;68661;-70
2022/06/10 10:54:29;;;;;;;;;;;;;;;26.69;37.76;97042.40;109697;1253;60620;-69
2022/06/10 10:56:59;;;;;;;;;;;;;;;26.74;37.43;97034.46;109672;1252;60559;-68
2022/06/10 10:59:28;;;;;;;;;;;;;;;26.90;37.00;97034.90;109700;1252;71585;-70
2022/06/10 11:01:56;;;;;;;;;;;;;;;27.12;36.99;97036.02;109611;1252;68705;-68
2022/06/10 11:04:35;;;;;;;;;;;;;;;27.31;37.59;97033.14;109933;1252;68780;-67
2022/06/10 11:07:04;;;;;;;;;;;;;;;27.61;37.05;97035.70;109721;1252;60484;-65
2022/06/10 11:10:04;;;;;;;;;;;;;;;27.87;35.95;97033.23;109672;1252;60925;-67
2022/06/10 11:12:34;;;;;;;;;;;;;;;28.13;35.73;97032.68;109755;1252;72165;-71
2022/06/10 11:15:16;;;;;;;;;;;;;;;28.06;36.33;97022.67;109707;1252;68756;-67
2022/06/10 11:17:46;;;;;;;;;;;;;;;27.82;36.12;97025.09;109679;1252;68765;-68
2022/06/10 11:20:15;;;;;;;;;;;;;;;27.74;36.46;97026.45;109649;1253;60528;-69
2022/06/10 11:22:46;;;;;;;;;;;;;;;27.50;37.12;97022.68;109714;1253;60478;-69
2022/06/10 11:25:25;;;;;;;;;;;;;;;27.25;37.44;97020.34;109764;1252;73018;-69
2022/06/10 11:27:57;;;;;;;;;;;;;;;27.26;38.71;97018.97;109657;1251;68693;-69
2022/06/10 11:30:34;;;;;;;;;;;;;;;27.21;37.99;97023.20;109724;1252;69986;-67
2022/06/10 11:33:26;;;;;;;;;;;;;;;27.38;37.72;97020.02;109663;1252;60562;-69
2022/06/10 11:36:14;;;;;;;;;;;;;;;27.53;36.94;97019.91;109652;1253;60444;-69
2022/06/10 11:38:52;;;;;;;;;;;;;;;27.49;36.83;97016.68;109652;1252;71577;-66
2022/06/10 11:41:27;;;;;;;;;;;;;;;27.40;35.81;97018.57;109685;1252;68750;-65
2022/06/10 11:44:05;;;;;;;;;;;;;;;27.36;36.35;97019.40;109897;1250;68702;-65
2022/06/10 11:46:37;;;;;;;;;;;;;;;27.31;35.55;97019.94;109897;1250;60566;-67
2022/06/10 11:49:13;;;;;;;;;;;;;;;27.17;35.58;97021.60;109921;1250;60508;-66
2022/06/10 11:52:00;;;;;;;;;;;;;;;27.12;35.92;97020.58;109943;1250;72387;-67
2022/06/10 11:54:34;;;;;;;;;;;;;;;27.15;35.68;97017.55;109765;1250;68629;-73
2022/06/10 12:00:27;;;;;;;;;;;;;;;27.14;35.38;97012.75;109634;1250;60542;-71
2022/06/10 12:03:02;;;;;;;;;;;;;;;26.94;35.20;97016.09;109870;1250;61379;-72
2022/06/10 12:05:38;;;;;;;;;;;;;;;26.66;36.15;97016.83;109944;1250;72970;-70
2022/06/10 12:08:24;;;;;;;;;;;;;;;26.55;35.92;97015.58;109866;1250;68720;-69
2022/06/10 12:10:58;;;;;;;;;;;;;;;26.41;35.92;97019.37;109871;1250;70058;-71
2022/06/10 12:13:31;;;;;;;;;;;;;;;26.24;36.79;97020.28;109836;1250;60554;-69
2022/06/10 12:15:59;;;;;;;;;;;;;;;26.24;36.81;97022.48;109692;1250;60552;-71
2022/06/10 12:18:29;;;;;;;;;;;;;;;26.25;36.81;97016.67;109635;1250;72450;-71
2022/06/10 12:21:04;;;;;;;;;;;;;;;26.24;37.18;97015.31;109689;1249;67973;-71
2022/06/10 12:23:36;;;;;;;;;;;;;;;26.25;36.61;97015.55;109841;1250;69532;-67
2022/06/10 12:26:24;;;;;;;;;;;;;;;26.14;37.08;97016.44;109629;1250;60618;-68
2022/06/10 12:28:56;;;;;;;;;;;;;;;26.08;37.20;97017.10;109905;1250;60500;-72
2022/06/10 12:31:24;;;;;;;;;;;;;;;26.11;36.42;97017.24;109857;1250;72212;-71
2022/06/10 12:33:57;;;;;;;;;;;;;;;26.25;36.79;97020.21;109879;1251;68645;-71
2022/06/10 12:36:39;;;;;;;;;;;;;;;26.45;36.51;97023.75;110131;1250;69480;-73
2022/06/10 12:39:15;;;;;;;;;;;;;;;26.73;36.14;97018.96;109841;1250;60551;-72
2022/06/10 12:41:47;;;;;;;;;;;;;;;26.94;35.44;97016.20;109952;1250;60493;-73
2022/06/10 12:44:19;;;;;;;;;;;;;;;26.99;35.70;97022.17;109938;1250;70571;-68
2022/06/10 12:46:52;;;;;;;;;;;;;;;27.11;35.22;97024.27;109951;1250;68597;-72
2022/06/10 12:49:25;;;;;;;;;;;;;;;27.15;34.48;97024.11;109923;1250;68647;-70
2022/06/10 12:52:02;;;;;;;;;;;;;;;26.99;33.51;97022.59;109700;1250;60494;-69
2022/06/10 12:54:57;;;;;;;;;;;;;;;27.03;33.46;97020.35;109691;1253;60578;-67
2022/06/10 12:57:40;;;;;;;;;;;;;;;26.93;33.34;97015.23;109806;1250;71601;-73
2022/06/10 13:00:18;;;;;;;;;;;;;;;26.96;33.77;97015.22;109703;1250;68674;-65
2022/06/10 13:02:50;;;;;;;;;;;;;;;27.03;33.74;97016.42;109569;1250;69541;-66
2022/06/10 13:05:21;;;;;;;;;;;;;;;27.11;33.71;97017.17;109721;1250;60577;-69
2022/06/10 13:07:50;;;;;;;;;;;;;;;27.13;33.93;97015.67;109736;1251;60513;-65
2022/06/10 13:10:26;;;;;;;;;;;;;;;27.08;34.48;97013.33;109895;1250;72405;-65
2022/06/10 13:12:59;;;;;;;;;;;;;;;27.21;34.49;97010.58;109995;1250;68769;-65
2022/06/10 13:15:31;;;;;;;;;;;;;;;27.35;34.85;97010.63;109941;1250;69458;-69
2022/06/10 13:18:05;;;;;;;;;;;;;;;27.59;33.57;97013.42;109808;1250;60570;-67
2022/06/10 13:20:38;;;;;;;;;;;;;;;27.44;33.44;97010.01;110206;1250;60496;-64